Time;durP1;ratioP1;P1;durP2;ratioP2;P2;SDS_P1;SDS_P2;PMS_P1;PMS_P2;Temp;Humidity;BMP_temperature;BMP_pressure;BME280_temperature;BME280_humidity;BME280_pressure;Samples;Min_cycle;Max_cycle;Signal;HPM_P1;HPM_P2
2021/12/05 00:21:45;;;;;;;12.50;4.30;;;5.30;99.90;;;;;;4999104;28;20199;-77
2021/12/05 00:24:16;;;;;;;12.30;5.07;;;5.30;99.90;;;;;;5030518;28;20199;-77
2021/12/05 00:26:51;;;;;;;10.17;4.07;;;5.30;99.90;;;;;;5028284;28;20206;-77
2021/12/05 00:29:27;;;;;;;8.07;3.30;;;5.30;99.90;;;;;;5029956;28;20242;-77
2021/12/05 00:32:11;;;;;;;11.20;4.17;;;5.30;99.90;;;;;;5032969;28;20200;-77
2021/12/05 00:40:53;;;;;;;6.40;2.97;;;5.20;99.90;;;;;;5043635;28;20190;-77
2021/12/05 00:43:43;;;;;;;8.23;3.53;;;5.30;99.90;;;;;;5061290;28;20200;-77
2021/12/05 00:46:30;;;;;;;10.13;3.83;;;5.20;99.90;;;;;;5026514;28;20548;-77
2021/12/05 00:55:09;;;;;;;9.07;3.63;;;5.20;99.90;;;;;;5001726;28;20210;-77
2021/12/05 00:57:58;;;;;;;5.90;2.63;;;5.20;99.90;;;;;;5026833;28;20206;-77
2021/12/05 01:03:52;;;;;;;6.63;3.60;;;5.20;99.90;;;;;;5028054;28;20205;-77
2021/12/05 01:09:31;;;;;;;8.70;2.90;;;5.10;99.90;;;;;;5011522;28;20752;-77
2021/12/05 01:12:11;;;;;;;8.60;3.43;;;5.10;99.90;;;;;;5023246;28;20208;-77
2021/12/05 01:14:52;;;;;;;13.43;4.13;;;5.10;99.90;;;;;;5019111;28;20711;-77
2021/12/05 01:17:26;;;;;;;11.60;4.07;;;5.10;99.90;;;;;;5029466;28;20215;-77
2021/12/05 01:19:56;;;;;;;8.37;3.20;;;5.10;99.90;;;;;;5023836;28;20223;-77
2021/12/05 01:22:26;;;;;;;8.80;3.70;;;5.10;99.90;;;;;;5029867;28;20560;-77
2021/12/05 01:25:02;;;;;;;10.63;3.50;;;5.10;99.90;;;;;;5034280;28;20212;-77
2021/12/05 01:27:39;;;;;;;9.97;3.47;;;5.10;99.90;;;;;;5034486;28;20203;-77
2021/12/05 01:30:15;;;;;;;13.20;3.67;;;5.00;99.90;;;;;;5032917;28;20687;-77
2021/12/05 01:32:57;;;;;;;9.13;3.43;;;5.00;99.90;;;;;;5050346;28;20203;-77
2021/12/05 01:35:41;;;;;;;10.07;3.70;;;5.00;99.90;;;;;;5047728;28;20198;-77
2021/12/05 01:38:15;;;;;;;7.67;3.53;;;5.00;99.90;;;;;;5046932;28;20216;-77
2021/12/05 01:40:56;;;;;;;7.20;3.67;;;5.10;99.90;;;;;;5048292;28;20203;-77
2021/12/05 01:46:50;;;;;;;6.50;3.70;;;5.10;99.90;;;;;;5027215;28;20229;-77
2021/12/05 01:49:48;;;;;;;10.43;3.73;;;5.10;99.90;;;;;;5033316;28;20214;-77
2021/12/05 01:52:44;;;;;;;13.03;3.70;;;5.10;99.90;;;;;;5061662;28;20195;-77
2021/12/05 01:55:43;;;;;;;9.70;4.30;;;5.20;99.90;;;;;;5018315;28;20188;-77
2021/12/05 01:58:36;;;;;;;8.50;2.97;;;5.20;99.90;;;;;;5039656;28;20219;-77
2021/12/05 02:01:19;;;;;;;13.20;3.87;;;5.20;99.90;;;;;;5032420;28;20199;-77
2021/12/05 02:09:43;;;;;;;8.30;3.20;;;5.30;99.90;;;;;;5056793;28;20231;-77
2021/12/05 02:12:34;;;;;;;10.60;3.17;;;5.30;99.90;;;;;;5043291;28;20194;-77
2021/12/05 02:32:14;;;;;;;7.77;3.00;;;5.40;99.90;;;;;;5047919;28;20207;-77
2021/12/05 02:34:50;;;;;;;9.63;3.23;;;5.50;99.90;;;;;;5030510;28;20676;-77
2021/12/05 02:37:36;;;;;;;8.23;2.80;;;5.40;99.90;;;;;;5048019;28;20192;-76
2021/12/05 02:40:20;;;;;;;9.93;2.60;;;5.40;99.90;;;;;;5022575;28;20203;-77
2021/12/05 02:42:55;;;;;;;11.07;3.00;;;5.40;99.90;;;;;;5047653;28;20641;-77
2021/12/05 02:45:22;;;;;;;7.00;3.00;;;5.40;99.90;;;;;;5047653;28;20206;-77
2021/12/05 02:47:52;;;;;;;11.07;3.83;;;5.40;99.90;;;;;;5046498;28;20692;-77
2021/12/05 02:50:22;;;;;;;11.03;3.27;;;5.40;99.90;;;;;;5029319;28;20210;-77
2021/12/05 02:52:56;;;;;;;7.77;2.47;;;5.30;99.90;;;;;;5047504;28;20205;-77
2021/12/05 02:55:32;;;;;;;6.93;3.60;;;5.30;99.90;;;;;;5027341;28;20183;-77
2021/12/05 02:58:02;;;;;;;7.50;3.70;;;5.30;99.90;;;;;;5027276;28;20310;-77
2021/12/05 03:00:39;;;;;;;8.97;2.97;;;5.30;99.90;;;;;;5060168;28;20209;-77
2021/12/05 03:03:18;;;;;;;5.87;2.63;;;5.30;99.90;;;;;;5031690;28;20204;-77
2021/12/05 03:05:48;;;;;;;9.80;3.13;;;5.20;99.90;;;;;;5031149;28;20202;-77
2021/12/05 03:08:17;;;;;;;10.20;2.47;;;5.30;99.90;;;;;;5032918;28;20223;-77
2021/12/05 03:10:45;;;;;;;6.47;2.43;;;5.20;99.90;;;;;;5041730;28;20556;-77
2021/12/05 03:13:13;;;;;;;9.43;3.43;;;5.20;99.90;;;;;;5028862;28;20200;-77
2021/12/05 03:15:40;;;;;;;8.87;2.83;;;5.20;99.90;;;;;;5027674;28;20214;-77
2021/12/05 03:18:08;;;;;;;7.27;3.73;;;5.20;99.90;;;;;;5031304;28;20222;-77
2021/12/05 03:20:36;;;;;;;10.00;2.80;;;5.20;99.90;;;;;;5025626;28;20204;-77
2021/12/05 03:23:03;;;;;;;7.37;2.97;;;5.20;99.90;;;;;;5029453;28;20210;-77
2021/12/05 03:25:33;;;;;;;10.67;3.43;;;5.20;99.90;;;;;;5028609;28;20208;-77
2021/12/05 03:28:04;;;;;;;8.53;3.13;;;5.20;99.90;;;;;;5031656;28;20215;-76
2021/12/05 03:30:35;;;;;;;7.83;2.73;;;5.20;99.90;;;;;;5028364;28;20195;-77
2021/12/05 03:33:04;;;;;;;6.13;3.10;;;5.20;99.90;;;;;;5055658;28;20201;-77
2021/12/05 03:35:33;;;;;;;9.40;2.63;;;5.20;99.90;;;;;;5056420;28;20203;-77
2021/12/05 03:38:06;;;;;;;12.00;3.53;;;5.20;99.90;;;;;;5053256;28;20593;-77
2021/12/05 03:40:51;;;;;;;8.37;2.93;;;5.20;99.90;;;;;;5061957;28;20665;-77
2021/12/05 03:43:20;;;;;;;13.30;3.13;;;5.20;99.90;;;;;;5038518;28;20203;-77
2021/12/05 03:45:51;;;;;;;9.50;2.93;;;5.20;99.90;;;;;;5046215;28;20552;-76
2021/12/05 03:48:22;;;;;;;6.73;2.77;;;5.20;99.90;;;;;;5031128;28;20211;-77
2021/12/05 03:50:49;;;;;;;7.40;2.90;;;5.20;99.90;;;;;;5032097;28;20200;-77
2021/12/05 03:53:19;;;;;;;9.20;2.60;;;5.20;99.90;;;;;;5029495;28;20218;-77
2021/12/05 03:55:51;;;;;;;4.47;2.80;;;5.20;99.90;;;;;;5045789;28;20203;-77
2021/12/05 03:58:20;;;;;;;9.43;2.87;;;5.20;99.90;;;;;;5025413;28;20215;-77
2021/12/05 04:00:54;;;;;;;11.30;2.80;;;5.20;99.90;;;;;;5029926;28;20653;-77
2021/12/05 04:03:24;;;;;;;7.67;2.43;;;5.20;99.90;;;;;;5041072;28;20218;-77
2021/12/05 04:05:52;;;;;;;6.63;2.30;;;5.20;99.90;;;;;;5019992;28;20200;-77
2021/12/05 04:08:23;;;;;;;8.93;2.47;;;5.20;99.90;;;;;;5042767;28;20228;-77
2021/12/05 04:10:55;;;;;;;6.60;2.40;;;5.20;99.90;;;;;;5028440;28;20577;-77
2021/12/05 04:13:23;;;;;;;7.50;2.40;;;5.20;99.90;;;;;;5058983;28;20207;-77
2021/12/05 04:15:53;;;;;;;8.50;2.57;;;5.20;99.90;;;;;;5055964;28;20580;-77
2021/12/05 04:18:21;;;;;;;9.80;3.00;;;5.20;99.90;;;;;;5072372;28;20215;-77
2021/12/05 04:20:49;;;;;;;5.73;1.87;;;5.20;99.90;;;;;;5066139;28;20203;-77
2021/12/05 04:23:17;;;;;;;8.13;2.07;;;5.20;99.90;;;;;;5030762;28;20226;-77
2021/12/05 04:25:48;;;;;;;6.20;2.60;;;5.20;99.90;;;;;;5030610;28;20238;-77
2021/12/05 04:28:19;;;;;;;8.90;3.07;;;5.20;99.90;;;;;;5030824;28;20218;-77
2021/12/05 04:30:47;;;;;;;7.77;2.60;;;5.20;99.90;;;;;;5060083;28;20187;-77
2021/12/05 04:33:15;;;;;;;7.47;2.50;;;5.20;99.90;;;;;;5021206;28;20665;-77
2021/12/05 04:35:44;;;;;;;7.87;2.23;;;5.20;99.90;;;;;;5024338;28;20203;-77
2021/12/05 04:38:12;;;;;;;5.10;2.40;;;5.10;99.90;;;;;;5030998;28;20230;-77
2021/12/05 04:40:41;;;;;;;7.97;2.77;;;5.10;99.90;;;;;;5061318;28;20194;-76
2021/12/05 04:43:10;;;;;;;8.10;2.93;;;5.10;99.90;;;;;;5062832;28;20195;-77
2021/12/05 04:45:50;;;;;;;4.97;2.27;;;5.10;99.90;;;;;;5043379;28;20277;-76
2021/12/05 04:48:18;;;;;;;4.90;2.43;;;5.10;99.90;;;;;;5025945;28;20220;-76
2021/12/05 04:50:47;;;;;;;9.40;2.40;;;5.10;99.90;;;;;;5054056;28;20202;-77
2021/12/05 04:53:14;;;;;;;10.20;2.93;;;5.10;99.90;;;;;;5019066;28;20196;-77
2021/12/05 04:55:41;;;;;;;6.77;2.63;;;5.10;99.90;;;;;;5041583;28;20200;-77
2021/12/05 04:58:14;;;;;;;6.63;2.73;;;5.10;99.90;;;;;;5028341;28;20216;-77
2021/12/05 05:00:45;;;;;;;7.87;2.77;;;5.10;99.90;;;;;;5058855;28;20203;-76
2021/12/05 05:03:15;;;;;;;5.50;2.30;;;5.10;99.90;;;;;;5034017;28;20208;-77
2021/12/05 05:05:49;;;;;;;5.73;2.03;;;5.10;99.90;;;;;;5029347;28;20207;-77
2021/12/05 05:08:19;;;;;;;8.03;2.70;;;5.10;99.90;;;;;;5028284;28;20231;-77
2021/12/05 05:10:47;;;;;;;5.50;2.50;;;5.10;99.90;;;;;;5045073;28;20198;-77
2021/12/05 05:13:14;;;;;;;7.43;2.73;;;5.10;99.90;;;;;;5034940;28;20207;-77
2021/12/05 05:15:42;;;;;;;5.63;2.23;;;5.00;99.90;;;;;;5033342;28;20198;-77
2021/12/05 05:18:11;;;;;;;7.10;2.07;;;5.00;99.90;;;;;;5033579;28;20222;-76
2021/12/05 05:20:48;;;;;;;6.33;2.00;;;5.00;99.90;;;;;;5057106;28;20215;-77
2021/12/05 05:23:38;;;;;;;6.03;2.10;;;5.00;99.90;;;;;;5031839;28;20213;-77
2021/12/05 05:26:46;;;;;;;7.57;2.33;;;5.00;99.90;;;;;;5038189;28;20195;-77
2021/12/05 05:40:17;;;;;;;6.37;2.03;;;5.00;99.90;;;;;;5031830;28;20212;-77
2021/12/05 05:45:52;;;;;;;6.77;2.23;;;5.00;99.90;;;;;;5029512;28;20213;-76
2021/12/05 05:51:13;;;;;;;5.30;1.60;;;5.00;99.90;;;;;;5013929;28;20203;-77
2021/12/05 05:53:45;;;;;;;3.60;1.70;;;5.00;99.90;;;;;;5029549;28;20206;-77
2021/12/05 05:56:17;;;;;;;8.53;2.20;;;5.00;99.90;;;;;;5037412;28;20657;-77
2021/12/05 05:58:48;;;;;;;6.67;1.93;;;5.00;99.90;;;;;;5048311;28;20227;-77
2021/12/05 06:01:21;;;;;;;7.30;2.43;;;5.00;99.90;;;;;;5061222;28;20207;-77
2021/12/05 06:03:49;;;;;;;4.40;2.20;;;5.10;99.90;;;;;;5048296;28;20684;-77
2021/12/05 06:06:18;;;;;;;7.57;2.00;;;5.10;99.90;;;;;;5042548;28;20203;-77
2021/12/05 06:08:47;;;;;;;5.40;2.07;;;5.10;99.90;;;;;;5048453;28;20225;-76
2021/12/05 06:11:17;;;;;;;5.53;1.73;;;5.00;99.90;;;;;;5038396;28;20204;-77
2021/12/05 06:13:45;;;;;;;3.70;1.67;;;5.00;99.90;;;;;;5062100;28;20203;-77
2021/12/05 06:16:14;;;;;;;5.90;1.60;;;5.10;99.90;;;;;;5029058;28;20211;-77
2021/12/05 06:18:42;;;;;;;6.67;2.03;;;5.00;99.90;;;;;;5064445;28;20227;-77
2021/12/05 06:21:10;;;;;;;6.70;1.77;;;5.00;99.90;;;;;;5026488;28;20200;-77
2021/12/05 06:23:38;;;;;;;6.30;1.90;;;5.00;99.90;;;;;;5056831;28;20208;-77
2021/12/05 06:26:11;;;;;;;4.97;1.90;;;5.00;99.90;;;;;;5029139;28;20195;-77
2021/12/05 06:28:41;;;;;;;6.90;2.00;;;5.00;99.90;;;;;;5032090;28;20214;-77
2021/12/05 06:31:20;;;;;;;7.10;2.13;;;5.00;99.90;;;;;;5046049;28;20211;-77
2021/12/05 06:39:26;;;;;;;7.63;2.10;;;5.00;99.90;;;;;;5025350;28;20570;-77
2021/12/05 06:42:06;;;;;;;5.50;2.10;;;5.00;99.90;;;;;;5046382;28;20206;-77
2021/12/05 06:47:22;;;;;;;3.73;1.57;;;5.30;99.90;;;;;;5043920;28;20192;-74
2021/12/05 06:49:49;;;;;;;6.53;1.97;;;5.60;99.90;;;;;;5025977;28;20224;-76
2021/12/05 06:52:17;;;;;;;8.27;2.03;;;5.30;99.90;;;;;;5038152;28;20205;-77
2021/12/05 06:54:45;;;;;;;5.93;1.70;;;5.20;99.90;;;;;;5026259;28;20192;-77
2021/12/05 06:57:14;;;;;;;4.10;1.80;;;5.10;99.90;;;;;;5027195;28;20210;-77
2021/12/05 06:59:47;;;;;;;6.80;1.70;;;5.10;99.90;;;;;;5030103;28;20211;-77
2021/12/05 07:02:17;;;;;;;4.13;1.57;;;5.10;99.90;;;;;;5031590;28;20191;-77
2021/12/05 07:04:58;;;;;;;5.13;1.90;;;5.10;99.90;;;;;;5022898;28;20206;-77
2021/12/05 07:07:29;;;;;;;6.67;2.70;;;5.20;99.90;;;;;;5042701;28;20216;-77
2021/12/05 07:09:56;;;;;;;6.60;1.50;;;5.20;99.90;;;;;;5035948;28;20216;-77
2021/12/05 07:16:00;;;;;;;4.73;1.53;;;5.20;99.90;;;;;;5024073;28;20201;-77
2021/12/05 07:21:10;;;;;;;3.80;1.60;;;5.10;99.90;;;;;;5031419;28;20219;-77
2021/12/05 07:23:49;;;;;;;3.17;1.87;;;5.20;99.90;;;;;;5060735;28;20207;-77
2021/12/05 07:26:42;;;;;;;5.90;1.70;;;5.20;99.90;;;;;;5021669;28;20201;-77
2021/12/05 07:40:27;;;;;;;2.67;1.50;;;5.20;99.90;;;;;;5041495;28;20215;-77
2021/12/05 07:42:56;;;;;;;2.63;1.33;;;5.20;99.90;;;;;;5062333;28;20199;-77
2021/12/05 07:45:50;;;;;;;4.33;1.50;;;5.20;99.90;;;;;;5032372;28;20209;-77
2021/12/05 07:48:26;;;;;;;3.60;1.50;;;5.20;99.90;;;;;;5025864;28;20222;-75
2021/12/05 07:51:07;;;;;;;4.23;1.60;;;5.30;99.90;;;;;;5039960;28;20196;-75
2021/12/05 07:53:48;;;;;;;4.57;1.80;;;5.30;99.90;;;;;;5025955;28;20206;-75
2021/12/05 07:56:31;;;;;;;2.77;1.63;;;5.30;99.90;;;;;;5039771;28;20196;-76
2021/12/05 08:16:00;;;;;;;3.27;1.63;;;5.30;99.90;;;;;;5031209;28;20186;-77
2021/12/05 08:18:31;;;;;;;4.53;1.87;;;5.40;99.90;;;;;;5027975;28;20229;-77
2021/12/05 08:21:00;;;;;;;3.90;1.50;;;5.40;99.90;;;;;;5030600;28;20215;-77
2021/12/05 08:23:28;;;;;;;3.57;1.70;;;5.40;99.90;;;;;;5040147;28;20655;-77
2021/12/05 08:26:04;;;;;;;2.53;1.30;;;5.40;99.90;;;;;;5029548;28;20191;-77
2021/12/05 08:28:50;;;;;;;3.97;1.90;;;5.40;99.90;;;;;;5032022;28;20228;-77
2021/12/05 08:31:39;;;;;;;5.23;1.60;;;5.40;99.90;;;;;;5030267;28;20672;-77
2021/12/05 08:34:27;;;;;;;4.37;1.97;;;5.40;99.90;;;;;;5036604;28;20197;-77
2021/12/05 08:40:15;;;;;;;3.43;1.93;;;5.30;99.90;;;;;;5035367;28;20222;-77
2021/12/05 09:24:46;;;;;;;4.80;1.93;;;5.40;99.90;;;;;;5029680;28;20203;-77
2021/12/05 10:01:57;;;;;;;2.93;1.90;;;5.80;99.90;;;;;;5031416;28;20677;-75
2021/12/05 10:07:44;;;;;;;3.37;1.80;;;5.50;99.90;;;;;;5044546;28;20220;-76
2021/12/05 10:10:23;;;;;;;4.53;1.80;;;5.60;99.90;;;;;;5028032;28;20203;-77
2021/12/05 10:13:04;;;;;;;4.23;1.50;;;5.60;99.90;;;;;;5028392;28;20199;-76
2021/12/05 10:15:51;;;;;;;4.70;1.87;;;5.60;99.90;;;;;;5026216;28;20205;-78
2021/12/05 10:18:54;;;;;;;2.97;1.90;;;5.60;99.90;;;;;;5029909;28;20216;-77
2021/12/05 10:36:05;;;;;;;5.67;1.70;;;5.60;99.90;;;;;;5026783;28;20200;-76
2021/12/05 10:38:40;;;;;;;3.70;1.73;;;5.60;99.90;;;;;;5042480;28;20222;-78
2021/12/05 10:41:34;;;;;;;3.70;1.90;;;5.60;99.90;;;;;;5029904;28;20216;-75
2021/12/05 10:44:05;;;;;;;2.03;1.63;;;5.60;99.90;;;;;;5034501;28;20211;-77
2021/12/05 10:46:35;;;;;;;4.20;1.70;;;5.60;99.90;;;;;;5031057;28;20206;-77
2021/12/05 10:49:06;;;;;;;1.77;1.53;;;5.60;99.90;;;;;;5031499;28;20974;-77
2021/12/05 10:51:37;;;;;;;4.77;1.70;;;5.60;99.90;;;;;;5045413;28;20200;-77
2021/12/05 10:54:07;;;;;;;2.47;1.50;;;5.70;99.90;;;;;;5058531;28;20208;-77
2021/12/05 10:56:36;;;;;;;3.47;1.63;;;5.60;99.90;;;;;;5060213;28;20208;-75
2021/12/05 10:59:07;;;;;;;3.43;1.80;;;5.60;99.90;;;;;;5040554;28;20263;-78
2021/12/05 11:01:38;;;;;;;2.77;1.40;;;5.70;99.90;;;;;;5039047;28;20230;-77
2021/12/05 11:04:27;;;;;;;1.50;1.40;;;5.70;99.90;;;;;;5025571;28;20205;-77
2021/12/05 11:06:56;;;;;;;2.20;1.57;;;5.60;99.90;;;;;;5025252;28;20200;-77
2021/12/05 11:09:25;;;;;;;3.93;1.60;;;5.70;99.90;;;;;;5026623;28;20243;-77
2021/12/05 11:11:57;;;;;;;3.00;1.57;;;5.70;99.90;;;;;;5024082;28;20661;-77
2021/12/05 11:14:27;;;;;;;3.20;1.50;;;5.70;99.90;;;;;;5022566;28;20558;-77
2021/12/05 11:16:59;;;;;;;3.20;1.60;;;5.80;99.90;;;;;;5039399;28;20212;-77
2021/12/05 11:19:32;;;;;;;1.90;1.33;;;5.80;99.90;;;;;;5037647;28;20225;-77
2021/12/05 11:22:04;;;;;;;2.90;1.60;;;5.80;99.90;;;;;;5022444;28;20222;-75
2021/12/05 11:24:43;;;;;;;3.30;1.50;;;5.90;99.90;;;;;;5038268;28;20205;-78
2021/12/05 11:27:19;;;;;;;5.67;2.00;;;6.00;99.90;;;;;;5038706;28;20202;-76
2021/12/05 11:30:10;;;;;;;2.17;1.73;;;6.10;99.90;;;;;;5043948;28;20231;-77
2021/12/05 11:32:51;;;;;;;3.03;1.43;;;6.10;99.90;;;;;;5062420;28;20197;-78
2021/12/05 11:35:26;;;;;;;3.33;1.70;;;6.10;99.90;;;;;;5061734;28;20204;-77
2021/12/05 11:38:00;;;;;;;1.37;1.27;;;6.10;99.90;;;;;;5039156;28;20541;-78
2021/12/05 11:40:54;;;;;;;4.07;1.40;;;6.10;99.90;;;;;;5045560;28;20204;-77
2021/12/05 11:43:29;;;;;;;1.53;1.30;;;6.10;99.90;;;;;;5033138;28;20213;-77
2021/12/05 11:46:00;;;;;;;1.73;1.53;;;6.00;99.90;;;;;;5057829;28;20206;-78
2021/12/05 11:48:32;;;;;;;2.60;1.53;;;6.10;99.90;;;;;;5043086;28;20222;-78
2021/12/05 11:51:19;;;;;;;3.43;1.73;;;6.10;99.90;;;;;;5055837;28;20205;-78
2021/12/05 11:53:49;;;;;;;2.40;1.50;;;6.20;99.90;;;;;;5040478;28;20209;-78
2021/12/05 11:56:24;;;;;;;1.90;1.23;;;6.10;99.90;;;;;;5056080;28;20226;-78
2021/12/05 11:59:15;;;;;;;2.80;1.40;;;6.20;99.90;;;;;;5059492;28;20241;-79
2021/12/05 12:01:45;;;;;;;1.90;1.40;;;6.30;99.90;;;;;;5026631;28;20209;-79
2021/12/05 12:04:15;;;;;;;2.30;1.77;;;6.20;99.90;;;;;;5029204;28;20197;-79
2021/12/05 12:07:11;;;;;;;2.77;1.27;;;6.20;99.90;;;;;;5027499;28;20206;-76
2021/12/05 12:09:39;;;;;;;3.07;1.50;;;6.10;99.90;;;;;;5050470;28;20232;-79
2021/12/05 12:12:07;;;;;;;2.30;1.30;;;6.30;99.90;;;;;;5021838;28;20205;-78
2021/12/05 12:14:35;;;;;;;2.53;1.80;;;6.20;99.90;;;;;;5040764;28;20213;-79
2021/12/05 12:17:09;;;;;;;3.33;1.70;;;6.20;99.90;;;;;;5021663;28;20280;-80
2021/12/05 12:19:37;;;;;;;3.03;1.70;;;6.10;99.90;;;;;;5041982;28;20231;-80
2021/12/05 12:22:07;;;;;;;1.90;1.50;;;6.20;99.90;;;;;;5027980;28;20225;-78
2021/12/05 12:24:40;;;;;;;3.27;1.67;;;6.20;99.90;;;;;;5022832;28;20526;-79
2021/12/05 12:27:08;;;;;;;3.10;1.70;;;6.20;99.90;;;;;;5029191;28;20196;-78
2021/12/05 12:29:37;;;;;;;3.23;1.70;;;6.30;99.90;;;;;;5022942;28;20233;-79
2021/12/05 12:32:12;;;;;;;3.07;2.03;;;6.30;99.90;;;;;;5041672;28;20203;-79
2021/12/05 12:34:42;;;;;;;1.73;1.23;;;6.30;99.90;;;;;;5027477;28;20213;-79
2021/12/05 12:37:12;;;;;;;2.13;1.60;;;6.30;99.90;;;;;;5029516;28;20213;-79
2021/12/05 12:39:43;;;;;;;1.63;1.50;;;6.20;99.90;;;;;;5036405;28;20227;-80
2021/12/05 12:42:21;;;;;;;1.83;1.73;;;6.20;99.90;;;;;;5055150;28;20764;-79
2021/12/05 12:45:01;;;;;;;2.80;1.50;;;6.30;99.90;;;;;;5033842;28;20201;-78
2021/12/05 12:47:35;;;;;;;2.87;1.67;;;6.20;99.90;;;;;;5044811;28;20213;-77
2021/12/05 12:50:34;;;;;;;2.27;1.60;;;6.30;99.90;;;;;;5035170;28;20232;-79
2021/12/05 12:53:11;;;;;;;1.83;1.53;;;6.40;99.90;;;;;;5037595;28;20192;-79
2021/12/05 12:55:43;;;;;;;1.73;1.47;;;6.90;99.90;;;;;;5029497;28;20197;-78
2021/12/05 12:58:13;;;;;;;2.83;1.40;;;6.60;99.90;;;;;;5025839;28;20558;-78
2021/12/05 13:00:46;;;;;;;1.23;1.13;;;6.50;99.90;;;;;;5030892;28;20219;-78
2021/12/05 13:03:27;;;;;;;4.40;1.47;;;6.50;99.90;;;;;;5057115;28;20213;-78
2021/12/05 13:11:51;;;;;;;4.77;2.07;;;6.50;99.90;;;;;;5046476;28;20256;-78
2021/12/05 13:14:21;;;;;;;2.00;1.23;;;6.40;99.90;;;;;;5031324;28;20209;-78
2021/12/05 13:16:50;;;;;;;2.73;1.20;;;6.50;99.90;;;;;;5025790;28;20217;-78
2021/12/05 13:19:48;;;;;;;3.20;1.60;;;6.50;99.90;;;;;;5032445;28;20225;-77
2021/12/05 13:22:15;;;;;;;1.47;1.10;;;6.60;99.90;;;;;;5035091;28;20570;-78
2021/12/05 13:24:46;;;;;;;4.30;1.47;;;6.60;99.90;;;;;;5034696;28;20193;-78
2021/12/05 13:27:29;;;;;;;1.97;1.47;;;6.60;99.90;;;;;;5041039;28;20207;-78
2021/12/05 13:30:00;;;;;;;1.63;1.20;;;6.50;99.90;;;;;;5032899;28;20221;-78
2021/12/05 13:32:30;;;;;;;1.83;1.33;;;6.50;99.90;;;;;;5033593;28;20200;-78
2021/12/05 13:35:00;;;;;;;3.07;1.43;;;6.50;99.90;;;;;;5030417;28;20199;-78
2021/12/05 13:37:30;;;;;;;1.47;1.37;;;6.40;99.90;;;;;;5057750;28;20210;-78
2021/12/05 13:40:17;;;;;;;1.40;1.30;;;6.40;99.90;;;;;;5033211;28;20225;-78
2021/12/05 13:43:26;;;;;;;2.23;1.60;;;6.50;99.90;;;;;;5030123;28;20212;-78
2021/12/05 13:45:56;;;;;;;3.80;1.60;;;6.50;99.90;;;;;;5051165;28;20277;-78
2021/12/05 13:48:29;;;;;;;3.80;1.53;;;6.60;99.90;;;;;;5047371;28;20218;-78
2021/12/05 13:51:00;;;;;;;1.70;1.40;;;6.60;99.90;;;;;;5034186;28;20216;-78
2021/12/05 13:53:46;;;;;;;2.03;1.50;;;6.60;99.90;;;;;;5030872;28;20196;-78
2021/12/05 13:56:26;;;;;;;2.33;1.40;;;6.70;99.90;;;;;;5043430;28;20206;-77
2021/12/05 13:59:06;;;;;;;2.93;1.40;;;6.70;99.90;;;;;;5046613;28;20633;-77
2021/12/05 14:01:35;;;;;;;2.67;1.47;;;6.70;99.90;;;;;;5045019;28;20207;-77
2021/12/05 14:04:11;;;;;;;2.37;1.10;;;6.80;99.90;;;;;;5038888;28;20218;-76
2021/12/05 14:06:54;;;;;;;1.93;1.10;;;6.70;99.90;;;;;;5049667;28;20222;-77
2021/12/05 14:09:29;;;;;;;5.57;1.53;;;6.70;99.90;;;;;;5057583;28;20313;-77
2021/12/05 14:12:03;;;;;;;2.03;1.47;;;6.70;99.90;;;;;;5047125;28;20202;-76
2021/12/05 14:14:40;;;;;;;1.50;1.40;;;6.70;99.90;;;;;;5042901;28;20214;-77
2021/12/05 14:17:19;;;;;;;1.60;1.10;;;6.60;99.90;;;;;;5023598;28;20217;-77
2021/12/05 14:19:48;;;;;;;1.73;1.50;;;6.60;99.90;;;;;;5061717;28;20222;-77
2021/12/05 14:22:41;;;;;;;2.03;1.57;;;6.60;99.90;;;;;;5065015;28;20564;-77
2021/12/05 14:25:11;;;;;;;1.33;1.00;;;6.50;99.90;;;;;;5029325;28;20202;-77
2021/12/05 14:27:53;;;;;;;2.07;1.20;;;6.50;99.90;;;;;;5031494;28;20569;-78
2021/12/05 14:30:25;;;;;;;1.60;1.20;;;6.50;99.90;;;;;;5032630;28;20196;-77
2021/12/05 14:32:57;;;;;;;2.07;1.37;;;6.50;99.90;;;;;;5041426;28;20206;-77
2021/12/05 14:35:30;;;;;;;2.10;1.20;;;6.50;99.90;;;;;;5033813;28;20202;-78
2021/12/05 14:38:00;;;;;;;2.43;1.40;;;6.40;99.90;;;;;;5038330;28;20242;-77
2021/12/05 14:40:50;;;;;;;2.80;1.20;;;6.50;99.90;;;;;;5058341;28;20202;-78
2021/12/05 14:43:58;;;;;;;2.23;0.90;;;6.40;99.90;;;;;;5058123;28;20575;-76
2021/12/05 14:46:43;;;;;;;1.97;1.40;;;6.50;99.90;;;;;;5031001;28;20221;-75
2021/12/05 14:49:30;;;;;;;1.63;1.30;;;6.50;99.90;;;;;;5019012;28;20264;-76
2021/12/05 14:51:59;;;;;;;2.40;1.37;;;6.70;99.90;;;;;;5027405;28;20213;-76
2021/12/05 14:54:33;;;;;;;2.50;1.10;;;6.70;99.90;;;;;;5040783;28;20208;-75
2021/12/05 14:57:11;;;;;;;1.27;1.10;;;6.70;99.90;;;;;;5043042;28;20202;-78
2021/12/05 14:59:45;;;;;;;2.10;1.30;;;7.80;99.90;;;;;;5027870;28;20227;-77
2021/12/05 15:02:24;;;;;;;2.57;1.00;;;8.60;99.90;;;;;;5028564;28;20210;-77
2021/12/05 15:04:58;;;;;;;3.83;1.20;;;7.70;99.90;;;;;;5027555;28;20198;-77
2021/12/05 15:07:29;;;;;;;2.13;1.50;;;7.40;99.90;;;;;;5044976;28;20194;-77
2021/12/05 15:10:10;;;;;;;2.00;1.27;;;7.20;99.90;;;;;;5050366;28;20227;-77
2021/12/05 15:12:40;;;;;;;1.83;1.30;;;7.20;99.90;;;;;;5038213;28;20201;-77
2021/12/05 15:15:10;;;;;;;2.50;1.40;;;7.10;99.90;;;;;;5038854;28;20528;-77
2021/12/05 15:17:42;;;;;;;1.70;1.60;;;7.10;99.90;;;;;;5053924;28;20199;-77
2021/12/05 15:20:16;;;;;;;5.03;1.80;;;7.10;99.90;;;;;;5032019;28;20198;-77
2021/12/05 15:22:48;;;;;;;2.57;2.00;;;7.10;99.90;;;;;;5033718;28;20176;-77
2021/12/05 15:25:18;;;;;;;1.90;1.57;;;7.00;99.90;;;;;;5027566;28;20650;-77
2021/12/05 15:30:19;;;;;;;2.87;1.53;;;7.00;99.90;;;;;;5049908;28;20672;-77
2021/12/05 15:32:55;;;;;;;2.30;1.80;;;7.00;99.90;;;;;;5062144;28;20213;-77
2021/12/05 15:35:28;;;;;;;2.23;1.60;;;7.10;99.90;;;;;;5051003;28;20205;-77
2021/12/05 15:37:58;;;;;;;3.13;1.77;;;7.00;99.90;;;;;;5066351;28;20199;-76
2021/12/05 15:40:28;;;;;;;3.67;1.70;;;7.00;99.90;;;;;;5076738;28;20664;-76
2021/12/05 15:43:03;;;;;;;3.03;1.90;;;7.00;99.90;;;;;;5064054;28;20190;-79
2021/12/05 15:45:32;;;;;;;3.80;2.23;;;7.10;99.90;;;;;;5083950;28;20193;-78
2021/12/05 15:48:01;;;;;;;3.13;2.00;;;7.10;99.90;;;;;;5071210;28;20197;-77
2021/12/05 15:50:31;;;;;;;2.53;1.87;;;7.00;99.90;;;;;;5071246;28;20206;-77
2021/12/05 15:53:01;;;;;;;3.17;2.17;;;6.90;99.90;;;;;;5071738;28;20202;-77
2021/12/05 15:55:50;;;;;;;3.83;1.90;;;6.90;99.90;;;;;;5086706;28;20212;-77
2021/12/05 15:58:20;;;;;;;3.50;1.70;;;6.90;99.90;;;;;;5070762;28;20221;-77
2021/12/05 16:00:51;;;;;;;3.10;1.80;;;6.90;99.90;;;;;;5084249;28;20547;-77
2021/12/05 16:03:23;;;;;;;2.60;1.87;;;6.90;99.90;;;;;;5069505;28;20213;-77
2021/12/05 16:05:54;;;;;;;3.40;2.33;;;6.80;99.90;;;;;;5069033;28;20217;-77
2021/12/05 16:08:22;;;;;;;4.00;2.20;;;6.90;99.90;;;;;;5070680;28;20221;-77
2021/12/05 16:10:57;;;;;;;3.40;2.63;;;6.90;99.90;;;;;;5067882;28;20662;-77
2021/12/05 16:13:36;;;;;;;5.13;3.13;;;6.90;99.90;;;;;;5060439;28;20210;-77
2021/12/05 16:16:15;;;;;;;4.17;3.53;;;6.80;99.90;;;;;;5081425;28;20201;-78
2021/12/05 16:18:46;;;;;;;4.73;3.77;;;6.80;99.90;;;;;;5063149;28;20225;-77
2021/12/05 16:21:19;;;;;;;5.17;3.83;;;6.80;99.90;;;;;;5069111;28;20198;-77
2021/12/05 16:23:49;;;;;;;4.97;4.10;;;6.70;99.90;;;;;;5080190;28;20214;-77
2021/12/05 16:26:21;;;;;;;4.40;3.90;;;6.60;99.90;;;;;;5059896;28;20762;-77
2021/12/05 16:28:53;;;;;;;5.93;4.10;;;6.60;99.90;;;;;;5077732;28;20225;-77
2021/12/05 16:31:22;;;;;;;4.97;3.80;;;6.50;99.90;;;;;;5072702;28;20634;-77
2021/12/05 16:33:53;;;;;;;4.57;3.83;;;6.40;99.90;;;;;;5067213;28;20251;-77
2021/12/05 16:36:22;;;;;;;4.70;3.87;;;6.50;99.90;;;;;;5065313;28;20200;-77
2021/12/05 16:38:52;;;;;;;6.03;3.80;;;6.40;99.90;;;;;;5068429;28;20225;-77
2021/12/05 16:41:25;;;;;;;5.93;3.97;;;6.40;99.90;;;;;;5071336;28;20192;-77
2021/12/05 16:43:59;;;;;;;6.60;4.33;;;6.40;99.90;;;;;;5070397;28;20228;-77
2021/12/05 16:47:14;;;;;;;4.47;4.07;;;6.40;99.90;;;;;;5086482;28;20201;-77
2021/12/05 16:49:44;;;;;;;5.53;4.93;;;6.30;99.90;;;;;;5066141;28;20228;-78
2021/12/05 16:52:36;;;;;;;5.87;4.33;;;6.00;99.90;;;;;;5061820;28;20205;-75
2021/12/05 16:55:19;;;;;;;7.27;4.63;;;6.10;99.90;;;;;;5086356;28;20196;-77
2021/12/05 16:58:10;;;;;;;7.83;4.53;;;6.10;99.90;;;;;;5085620;28;20204;-77
2021/12/05 17:00:50;;;;;;;7.23;5.17;;;5.90;99.90;;;;;;5086282;28;20209;-77
2021/12/05 17:03:28;;;;;;;6.00;4.73;;;6.00;99.90;;;;;;5075328;28;20220;-78
2021/12/05 17:06:04;;;;;;;5.13;4.67;;;6.00;99.90;;;;;;5062203;28;20198;-77
2021/12/05 17:08:52;;;;;;;7.40;5.30;;;6.10;99.90;;;;;;5085439;28;20658;-77
2021/12/05 17:11:29;;;;;;;8.03;5.33;;;6.10;99.90;;;;;;5078971;28;20213;-77
2021/12/05 17:13:56;;;;;;;7.33;6.57;;;6.10;99.90;;;;;;5074175;28;20326;-78
2021/12/05 17:16:29;;;;;;;7.80;5.43;;;6.10;99.90;;;;;;5070982;28;20200;-77
2021/12/05 17:18:58;;;;;;;5.97;5.33;;;6.10;99.90;;;;;;5086305;28;20335;-78
2021/12/05 17:21:31;;;;;;;5.97;4.77;;;6.00;99.90;;;;;;5072273;28;20212;-77
2021/12/05 17:24:02;;;;;;;7.27;5.33;;;6.00;99.90;;;;;;5072070;28;20209;-77
2021/12/05 17:26:34;;;;;;;6.10;5.20;;;6.00;99.90;;;;;;5086106;28;20653;-77